Time;durP1;ratioP1;P1;durP2;ratioP2;P2;SDS_P1;SDS_P2;PMS_P1;PMS_P2;Temp;Humidity;BMP_temperature;BMP_pressure;BME280_temperature;BME280_humidity;BME280_pressure;Samples;Min_cycle;Max_cycle;Signal;HPM_P1;HPM_P2
2023/07/28 00:00:19;;;;;;;1.47;1.37;;;;;;;;;;5073109;28;20201;-86
2023/07/28 00:02:49;;;;;;;2.40;1.33;;;;;;;;;;5071278;28;20251;-84
2023/07/28 00:05:18;;;;;;;4.80;1.27;;;;;;;;;;5072329;28;20203;-83
2023/07/28 00:07:46;;;;;;;2.67;2.10;;;;;;;;;;5072465;28;20282;-84
2023/07/28 00:10:14;;;;;;;5.67;1.90;;;;;;;;;;5072491;28;20222;-84
2023/07/28 00:12:43;;;;;;;8.70;1.87;;;;;;;;;;5072020;28;20226;-83
2023/07/28 00:15:11;;;;;;;1.70;0.63;;;;;;;;;;5072321;28;20194;-84
2023/07/28 00:17:40;;;;;;;2.23;1.77;;;;;;;;;;5072208;28;20210;-83
2023/07/28 00:20:10;;;;;;;12.40;4.50;;;;;;;;;;5072149;28;20204;-83
2023/07/28 00:22:39;;;;;;;3.07;1.60;;;;;;;;;;5072067;28;20195;-84
2023/07/28 00:25:07;;;;;;;5.40;2.63;;;;;;;;;;5072187;28;20190;-83
2023/07/28 00:27:36;;;;;;;9.70;2.93;;;;;;;;;;5072339;28;20288;-84
2023/07/28 00:30:05;;;;;;;3.40;2.33;;;;;;;;;;5071382;28;20217;-83
2023/07/28 00:32:33;;;;;;;5.50;3.10;;;;;;;;;;5072245;28;20222;-83
2023/07/28 00:35:02;;;;;;;0.43;0.43;;;;;;;;;;5072031;28;20223;-83
2023/07/28 00:37:31;;;;;;;4.97;2.67;;;;;;;;;;5072044;28;20214;-83
2023/07/28 00:40:00;;;;;;;9.93;3.00;;;;;;;;;;5071862;28;20203;-83
2023/07/28 00:42:28;;;;;;;8.10;1.70;;;;;;;;;;5072432;28;20198;-83
2023/07/28 00:44:57;;;;;;;4.80;1.80;;;;;;;;;;5071837;28;20236;-83
2023/07/28 00:47:26;;;;;;;5.17;1.83;;;;;;;;;;5071403;28;20228;-83
2023/07/28 00:49:54;;;;;;;1.27;1.23;;;;;;;;;;5071694;28;20215;-83
2023/07/28 00:52:23;;;;;;;1.27;1.17;;;;;;;;;;5071633;28;20192;-83
2023/07/28 00:54:53;;;;;;;2.77;2.10;;;;;;;;;;5071809;28;20294;-83
2023/07/28 00:57:21;;;;;;;5.60;1.97;;;;;;;;;;5072040;28;20217;-83
2023/07/28 00:59:50;;;;;;;7.83;2.67;;;;;;;;;;5071632;28;20219;-83
2023/07/28 01:02:19;;;;;;;10.07;0.97;;;;;;;;;;5071957;28;20301;-84
2023/07/28 01:04:47;;;;;;;6.23;2.67;;;;;;;;;;5070970;28;20195;-83
2023/07/28 01:07:17;;;;;;;3.60;1.80;;;;;;;;;;5072093;28;20227;-84
2023/07/28 01:09:48;;;;;;;5.70;2.40;;;;;;;;;;5071570;28;20228;-83
2023/07/28 01:12:18;;;;;;;10.87;2.37;;;;;;;;;;5071659;28;20231;-83
2023/07/28 01:14:46;;;;;;;10.63;3.60;;;;;;;;;;5071030;28;20199;-83
2023/07/28 01:17:15;;;;;;;2.17;1.97;;;;;;;;;;5071606;28;20203;-83
2023/07/28 01:19:43;;;;;;;5.23;1.93;;;;;;;;;;5071340;28;20206;-83
2023/07/28 01:22:36;;;;;;;9.73;2.23;;;;;;;;;;5071122;28;20200;-84
2023/07/28 01:25:08;;;;;;;8.33;2.77;;;;;;;;;;5071496;28;20201;-83
2023/07/28 01:27:42;;;;;;;6.00;1.87;;;;;;;;;;5071430;28;20201;-83
2023/07/28 01:30:11;;;;;;;1.90;1.33;;;;;;;;;;5070997;28;20231;-83
2023/07/28 01:32:40;;;;;;;0.27;0.27;;;;;;;;;;5070874;28;20197;-83
2023/07/28 01:35:09;;;;;;;2.33;1.73;;;;;;;;;;5071897;28;20198;-83
2023/07/28 01:37:37;;;;;;;3.10;1.47;;;;;;;;;;5071431;28;20215;-83
2023/07/28 01:40:06;;;;;;;11.13;2.97;;;;;;;;;;5071267;28;20204;-84
2023/07/28 01:42:35;;;;;;;8.17;3.10;;;;;;;;;;5071259;28;20207;-83
2023/07/28 01:45:05;;;;;;;1.53;1.43;;;;;;;;;;5071326;28;20248;-83
2023/07/28 01:47:34;;;;;;;2.30;1.07;;;;;;;;;;5071129;28;20202;-83
2023/07/28 01:50:02;;;;;;;3.03;2.40;;;;;;;;;;5070787;28;20321;-86
2023/07/28 01:52:31;;;;;;;6.17;3.00;;;;;;;;;;5071721;28;20202;-87
2023/07/28 01:54:59;;;;;;;3.43;1.67;;;;;;;;;;5071041;28;20199;-83
2023/07/28 01:57:28;;;;;;;1.33;1.33;;;;;;;;;;5070788;28;20261;-84
2023/07/28 01:59:56;;;;;;;2.33;2.10;;;;;;;;;;5071078;28;20203;-83
2023/07/28 02:02:26;;;;;;;2.73;1.17;;;;;;;;;;5070859;28;20202;-84
2023/07/28 02:04:55;;;;;;;9.73;5.03;;;;;;;;;;5071145;28;20193;-84
2023/07/28 02:07:23;;;;;;;1.50;1.40;;;;;;;;;;5070528;28;20230;-84
2023/07/28 02:09:52;;;;;;;5.73;2.77;;;;;;;;;;5071003;28;20223;-83
2023/07/28 02:12:20;;;;;;;2.17;1.97;;;;;;;;;;5071069;28;20270;-83
2023/07/28 02:14:49;;;;;;;4.73;2.27;;;;;;;;;;5070946;28;20203;-83
2023/07/28 02:17:17;;;;;;;3.67;1.57;;;;;;;;;;5070586;28;20203;-86
2023/07/28 02:19:47;;;;;;;4.23;2.43;;;;;;;;;;5070753;28;20286;-86
2023/07/28 02:22:15;;;;;;;1.63;1.53;;;;;;;;;;5071067;28;20197;-86
2023/07/28 02:24:44;;;;;;;11.57;2.73;;;;;;;;;;5070783;28;20194;-86
2023/07/28 02:27:12;;;;;;;0.80;0.80;;;;;;;;;;5073057;28;20200;-86
2023/07/28 02:29:41;;;;;;;5.23;2.17;;;;;;;;;;5074204;28;20279;-85
2023/07/28 02:32:10;;;;;;;1.50;1.43;;;;;;;;;;5074045;28;20200;-86
2023/07/28 02:34:38;;;;;;;6.80;2.20;;;;;;;;;;5073845;28;20191;-86
2023/07/28 02:37:08;;;;;;;1.40;1.30;;;;;;;;;;5074305;28;20260;-86
2023/07/28 02:39:37;;;;;;;3.50;1.80;;;;;;;;;;5074231;28;20199;-86
2023/07/28 02:42:06;;;;;;;3.30;2.73;;;;;;;;;;5073831;28;20203;-86
2023/07/28 02:44:34;;;;;;;2.23;1.80;;;;;;;;;;5074379;28;20237;-86
2023/07/28 02:47:03;;;;;;;3.10;1.70;;;;;;;;;;5074084;28;20194;-83
2023/07/28 02:49:31;;;;;;;0.70;0.70;;;;;;;;;;5073697;28;20194;-83
2023/07/28 02:52:00;;;;;;;5.20;3.47;;;;;;;;;;5073512;28;20208;-83
2023/07/28 02:54:30;;;;;;;5.00;3.13;;;;;;;;;;5074279;28;20201;-83
2023/07/28 02:56:58;;;;;;;6.70;3.70;;;;;;;;;;5073901;28;20205;-84
2023/07/28 02:59:27;;;;;;;1.37;1.27;;;;;;;;;;5073455;28;20209;-83
2023/07/28 03:01:57;;;;;;;1.60;1.20;;;;;;;;;;5073754;28;20260;-86
2023/07/28 03:04:26;;;;;;;2.50;2.27;;;;;;;;;;5073603;28;20273;-86
2023/07/28 03:06:54;;;;;;;1.10;1.10;;;;;;;;;;5073483;28;20214;-86
2023/07/28 03:09:23;;;;;;;9.10;4.37;;;;;;;;;;5073382;28;20212;-86
2023/07/28 03:11:52;;;;;;;6.60;3.30;;;;;;;;;;5073616;28;20218;-86
2023/07/28 03:14:21;;;;;;;1.40;1.30;;;;;;;;;;5073681;28;20202;-86
2023/07/28 03:16:49;;;;;;;4.90;2.47;;;;;;;;;;5073779;28;20207;-86
2023/07/28 03:19:18;;;;;;;10.07;4.43;;;;;;;;;;5073624;28;20206;-86
2023/07/28 03:21:46;;;;;;;4.27;2.63;;;;;;;;;;5073703;28;20198;-86
2023/07/28 03:24:15;;;;;;;3.43;2.77;;;;;;;;;;5073902;28;20204;-86
2023/07/28 03:26:43;;;;;;;3.63;1.90;;;;;;;;;;5073209;28;20209;-85
2023/07/28 03:29:13;;;;;;;1.87;1.77;;;;;;;;;;5073015;28;20236;-87
2023/07/28 03:31:41;;;;;;;2.60;1.63;;;;;;;;;;5073223;28;20238;-86
2023/07/28 03:34:10;;;;;;;1.23;1.20;;;;;;;;;;5073038;28;20196;-86
2023/07/28 03:36:38;;;;;;;0.50;0.50;;;;;;;;;;5073096;28;20210;-86
2023/07/28 03:39:07;;;;;;;2.03;1.93;;;;;;;;;;5072952;28;20194;-86
2023/07/28 03:41:35;;;;;;;6.10;5.27;;;;;;;;;;5073431;28;20209;-86
2023/07/28 03:44:04;;;;;;;6.50;3.43;;;;;;;;;;5072411;28;20202;-83
2023/07/28 03:46:34;;;;;;;5.43;3.07;;;;;;;;;;5072939;28;20212;-84
2023/07/28 03:49:02;;;;;;;10.37;4.63;;;;;;;;;;5073012;28;20204;-84
2023/07/28 03:51:31;;;;;;;4.60;2.50;;;;;;;;;;5072464;28;20305;-83
2023/07/28 03:53:59;;;;;;;10.13;4.20;;;;;;;;;;5072631;28;20210;-83
2023/07/28 03:56:28;;;;;;;11.53;2.50;;;;;;;;;;5072742;28;20255;-83
2023/07/28 03:58:57;;;;;;;4.30;3.20;;;;;;;;;;5072341;28;20203;-83
2023/07/28 04:01:25;;;;;;;10.47;3.27;;;;;;;;;;5072047;28;20198;-83
2023/07/28 04:03:55;;;;;;;8.57;1.70;;;;;;;;;;5072843;28;20240;-83
2023/07/28 04:06:38;;;;;;;1.93;1.83;;;;;;;;;;5072534;28;20227;-83
2023/07/28 04:09:07;;;;;;;2.30;1.23;;;;;;;;;;5072311;28;20206;-83
2023/07/28 04:11:36;;;;;;;1.20;1.13;;;;;;;;;;5072376;28;20218;-83
2023/07/28 04:14:04;;;;;;;5.00;4.33;;;;;;;;;;5072637;28;20202;-83
2023/07/28 04:16:33;;;;;;;2.20;2.07;;;;;;;;;;5072651;28;20241;-83
2023/07/28 04:19:03;;;;;;;3.83;2.77;;;;;;;;;;5071419;28;20201;-84
2023/07/28 04:21:31;;;;;;;6.37;3.30;;;;;;;;;;5072895;28;20203;-83
2023/07/28 04:24:00;;;;;;;1.43;1.33;;;;;;;;;;5071921;28;20232;-83
2023/07/28 04:26:28;;;;;;;9.43;3.50;;;;;;;;;;5072522;28;20216;-83
2023/07/28 04:28:57;;;;;;;4.43;3.50;;;;;;;;;;5071187;28;20298;-83
2023/07/28 04:31:25;;;;;;;9.23;5.10;;;;;;;;;;5072245;28;20217;-83
2023/07/28 04:33:54;;;;;;;11.27;5.63;;;;;;;;;;5072209;28;20208;-86
2023/07/28 04:36:23;;;;;;;7.80;3.07;;;;;;;;;;5071679;28;20199;-86
2023/07/28 04:38:52;;;;;;;0.50;0.50;;;;;;;;;;5071509;28;20196;-86
2023/07/28 04:41:20;;;;;;;2.37;2.23;;;;;;;;;;5072529;28;20216;-84
2023/07/28 04:43:49;;;;;;;2.03;1.57;;;;;;;;;;5071461;28;20195;-83
2023/07/28 04:46:18;;;;;;;9.33;1.87;;;;;;;;;;5071797;28;20322;-83
2023/07/28 04:48:47;;;;;;;8.90;4.13;;;;;;;;;;5071573;28;20271;-83
2023/07/28 04:51:15;;;;;;;9.67;3.20;;;;;;;;;;5072072;28;20235;-83
2023/07/28 04:53:45;;;;;;;2.47;2.20;;;;;;;;;;5071431;28;20219;-83
2023/07/28 04:56:14;;;;;;;2.70;2.50;;;;;;;;;;5071545;28;20221;-83
2023/07/28 04:58:42;;;;;;;0.40;0.40;;;;;;;;;;5071485;28;20232;-84
2023/07/28 05:01:12;;;;;;;0.63;0.63;;;;;;;;;;5071751;28;20201;-84
2023/07/28 05:03:41;;;;;;;1.17;0.90;;;;;;;;;;5070657;28;20276;-84
2023/07/28 05:06:09;;;;;;;2.30;2.17;;;;;;;;;;5071637;28;20220;-83
2023/07/28 05:08:38;;;;;;;0.73;0.63;;;;;;;;;;5072360;28;20203;-83
2023/07/28 05:11:08;;;;;;;1.33;1.23;;;;;;;;;;5071741;28;20218;-83
2023/07/28 05:13:38;;;;;;;5.60;4.33;;;;;;;;;;5072522;28;20200;-83
2023/07/28 05:16:06;;;;;;;0.33;0.33;;;;;;;;;;5072756;28;20207;-83
2023/07/28 05:18:35;;;;;;;0.40;0.40;;;;;;;;;;5071905;28;20209;-83
2023/07/28 05:21:03;;;;;;;2.30;2.10;;;;;;;;;;5071949;28;20206;-83
2023/07/28 05:23:32;;;;;;;6.20;2.83;;;;;;;;;;5072474;28;20204;-83
2023/07/28 05:26:00;;;;;;;0.50;0.50;;;;;;;;;;5071919;28;20204;-83
2023/07/28 05:28:30;;;;;;;3.50;1.90;;;;;;;;;;5071118;28;20194;-83
2023/07/28 05:31:05;;;;;;;1.60;1.50;;;;;;;;;;5071195;28;20226;-83
2023/07/28 05:33:34;;;;;;;6.53;4.00;;;;;;;;;;5071489;28;20197;-84
2023/07/28 05:36:03;;;;;;;3.20;1.63;;;;;;;;;;5071660;28;20231;-84
2023/07/28 05:38:33;;;;;;;3.40;2.10;;;;;;;;;;5070790;28;20212;-83
2023/07/28 05:41:02;;;;;;;6.33;2.47;;;;;;;;;;5071343;28;20204;-85
2023/07/28 05:43:33;;;;;;;3.10;2.13;;;;;;;;;;5071697;28;20239;-86
2023/07/28 05:46:02;;;;;;;4.73;1.70;;;;;;;;;;5071118;28;20199;-86
2023/07/28 05:48:31;;;;;;;5.83;3.27;;;;;;;;;;5070712;28;20197;-86
2023/07/28 05:50:59;;;;;;;10.03;5.93;;;;;;;;;;5071266;28;20266;-85
2023/07/28 05:53:28;;;;;;;0.80;0.80;;;;;;;;;;5071503;28;20231;-86
2023/07/28 05:55:56;;;;;;;9.00;3.43;;;;;;;;;;5070833;28;20231;-86
2023/07/28 05:58:25;;;;;;;3.17;2.67;;;;;;;;;;5071154;28;20204;-86
2023/07/28 06:00:55;;;;;;;11.77;6.40;;;;;;;;;;5071288;28;20206;-83
2023/07/28 06:03:23;;;;;;;4.97;4.50;;;;;;;;;;5074695;28;20254;-83
2023/07/28 06:05:53;;;;;;;3.10;2.40;;;;;;;;;;5074446;28;20221;-83
2023/07/28 06:08:23;;;;;;;1.80;1.70;;;;;;;;;;5074407;28;20288;-83
2023/07/28 06:10:51;;;;;;;9.77;5.47;;;;;;;;;;5075107;28;20202;-83
2023/07/28 06:13:20;;;;;;;0.67;0.67;;;;;;;;;;5074057;28;20218;-83
2023/07/28 06:15:48;;;;;;;7.30;3.10;;;;;;;;;;5074530;28;20301;-83
2023/07/28 06:18:18;;;;;;;1.53;1.50;;;;;;;;;;5074690;28;20206;-83
2023/07/28 06:20:47;;;;;;;2.47;1.53;;;;;;;;;;5074665;28;20204;-83
2023/07/28 06:23:15;;;;;;;4.07;2.80;;;;;;;;;;5074217;28;20197;-82
2023/07/28 06:25:45;;;;;;;1.80;1.20;;;;;;;;;;5074439;28;20197;-82
2023/07/28 06:28:14;;;;;;;3.40;1.83;;;;;;;;;;5074781;28;20217;-83
2023/07/28 06:30:43;;;;;;;1.97;1.77;;;;;;;;;;5074279;28;20202;-82
2023/07/28 06:33:15;;;;;;;10.30;2.17;;;;;;;;;;5074516;28;20219;-81
2023/07/28 06:35:44;;;;;;;5.07;1.43;;;;;;;;;;5074418;28;20210;-81
2023/07/28 06:38:13;;;;;;;2.07;1.63;;;;;;;;;;5073722;28;20208;-81
2023/07/28 06:40:41;;;;;;;4.17;2.67;;;;;;;;;;5073455;28;20257;-81
2023/07/28 06:43:10;;;;;;;1.80;1.70;;;;;;;;;;5074396;28;20214;-81
2023/07/28 06:45:39;;;;;;;2.50;2.17;;;;;;;;;;5074112;28;20210;-81
2023/07/28 06:48:07;;;;;;;6.77;2.87;;;;;;;;;;5073438;28;20206;-82
2023/07/28 06:50:35;;;;;;;7.00;3.10;;;;;;;;;;5074030;28;20202;-81
2023/07/28 06:53:05;;;;;;;0.73;0.73;;;;;;;;;;5074180;28;20214;-81
2023/07/28 06:55:35;;;;;;;4.80;3.43;;;;;;;;;;5074044;28;20281;-81
2023/07/28 06:58:03;;;;;;;7.07;4.37;;;;;;;;;;5073678;28;20194;-81
2023/07/28 07:00:32;;;;;;;5.53;3.03;;;;;;;;;;5073894;28;20202;-85
2023/07/28 07:03:00;;;;;;;0.30;0.30;;;;;;;;;;5073512;28;20202;-81
2023/07/28 07:05:29;;;;;;;8.27;3.03;;;;;;;;;;5073227;28;20225;-81
2023/07/28 07:07:57;;;;;;;5.43;1.73;;;;;;;;;;5073638;28;20209;-81
2023/07/28 07:10:27;;;;;;;2.30;1.87;;;;;;;;;;5073641;28;20206;-81
2023/07/28 07:12:56;;;;;;;11.47;5.40;;;;;;;;;;5072867;28;20209;-81
2023/07/28 07:15:25;;;;;;;6.77;3.83;;;;;;;;;;5072924;28;20203;-82
2023/07/28 07:17:55;;;;;;;10.17;3.93;;;;;;;;;;5073128;28;20196;-83
2023/07/28 07:20:24;;;;;;;2.37;2.17;;;;;;;;;;5073601;28;20221;-82
2023/07/28 07:22:53;;;;;;;2.87;1.80;;;;;;;;;;5073044;28;20195;-82
2023/07/28 07:25:24;;;;;;;3.63;2.93;;;;;;;;;;5073192;28;20298;-82
2023/07/28 07:27:55;;;;;;;1.30;1.20;;;;;;;;;;5073580;28;20211;-82
2023/07/28 07:30:26;;;;;;;2.77;1.60;;;;;;;;;;5073389;28;20294;-82
2023/07/28 07:32:55;;;;;;;3.63;2.97;;;;;;;;;;5072833;28;20222;-82
2023/07/28 07:35:23;;;;;;;1.20;1.10;;;;;;;;;;5072972;28;20317;-81
2023/07/28 07:37:52;;;;;;;5.90;4.10;;;;;;;;;;5073203;28;20214;-82
2023/07/28 07:40:20;;;;;;;10.93;4.60;;;;;;;;;;5072610;28;20206;-82
2023/07/28 07:42:49;;;;;;;12.80;3.40;;;;;;;;;;5072751;28;20209;-82
2023/07/28 07:45:19;;;;;;;1.80;0.50;;;;;;;;;;5072809;28;20189;-82
2023/07/28 07:47:48;;;;;;;2.57;2.37;;;;;;;;;;5072886;28;20209;-82
2023/07/28 07:50:16;;;;;;;5.27;2.93;;;;;;;;;;5072911;28;20198;-82
2023/07/28 07:52:45;;;;;;;1.60;1.47;;;;;;;;;;5072448;28;20218;-82
2023/07/28 07:55:14;;;;;;;3.77;2.83;;;;;;;;;;5073101;28;20206;-82
2023/07/28 07:57:42;;;;;;;2.10;1.80;;;;;;;;;;5072333;28;20197;-82
2023/07/28 08:00:11;;;;;;;7.30;3.37;;;;;;;;;;5072128;28;20194;-82
2023/07/28 08:02:41;;;;;;;5.00;2.47;;;;;;;;;;5072709;28;20209;-82
2023/07/28 08:05:14;;;;;;;8.13;1.77;;;;;;;;;;5072547;28;20230;-82
2023/07/28 08:07:42;;;;;;;1.60;1.50;;;;;;;;;;5072138;28;20210;-82
2023/07/28 08:10:11;;;;;;;5.00;1.90;;;;;;;;;;5072307;28;20201;-82
2023/07/28 08:12:41;;;;;;;13.57;5.13;;;;;;;;;;5072960;28;20296;-82
2023/07/28 08:15:10;;;;;;;2.27;2.07;;;;;;;;;;5072529;28;20198;-82
2023/07/28 08:17:39;;;;;;;2.73;1.00;;;;;;;;;;5071948;28;20308;-82
2023/07/28 08:20:10;;;;;;;2.07;1.70;;;;;;;;;;5072175;28;20191;-82
2023/07/28 08:22:38;;;;;;;3.83;2.23;;;;;;;;;;5072332;28;20268;-82
2023/07/28 08:25:08;;;;;;;2.63;2.43;;;;;;;;;;5071222;28;20201;-82
2023/07/28 08:27:36;;;;;;;3.60;1.80;;;;;;;;;;5072042;28;20215;-82
2023/07/28 08:30:06;;;;;;;0.50;0.50;;;;;;;;;;5072337;28;20190;-87
2023/07/28 08:32:34;;;;;;;2.47;2.17;;;;;;;;;;5072607;28;20202;-86
2023/07/28 08:35:04;;;;;;;7.77;2.53;;;;;;;;;;5071790;28;20244;-84
2023/07/28 08:37:36;;;;;;;2.43;2.23;;;;;;;;;;5072116;28;20199;-85
2023/07/28 08:40:05;;;;;;;0.53;0.53;;;;;;;;;;5071849;28;20228;-86
2023/07/28 08:42:36;;;;;;;5.13;4.23;;;;;;;;;;5071787;28;20205;-86
2023/07/28 08:45:05;;;;;;;3.53;2.13;;;;;;;;;;5072360;28;20201;-86
2023/07/28 08:47:34;;;;;;;7.53;4.23;;;;;;;;;;5072775;28;20201;-86
2023/07/28 08:50:03;;;;;;;1.40;1.17;;;;;;;;;;5072273;28;20210;-86
2023/07/28 08:52:32;;;;;;;4.97;2.93;;;;;;;;;;5071828;28;20218;-86
2023/07/28 08:55:01;;;;;;;2.00;1.90;;;;;;;;;;5071907;28;20271;-82
2023/07/28 08:57:30;;;;;;;1.33;1.23;;;;;;;;;;5071870;28;20198;-82
2023/07/28 08:59:59;;;;;;;3.70;2.77;;;;;;;;;;5071748;28;20201;-82
2023/07/28 09:02:29;;;;;;;7.27;1.87;;;;;;;;;;5071840;28;20197;-82
2023/07/28 09:04:57;;;;;;;2.00;1.50;;;;;;;;;;5071382;28;20314;-81
2023/07/28 09:07:27;;;;;;;2.37;2.17;;;;;;;;;;5071659;28;20205;-81
2023/07/28 09:10:02;;;;;;;1.20;1.00;;;;;;;;;;5071024;28;20267;-81
2023/07/28 09:12:32;;;;;;;3.20;2.90;;;;;;;;;;5071776;28;20209;-81
2023/07/28 09:15:01;;;;;;;5.63;3.90;;;;;;;;;;5071611;28;20228;-81
2023/07/28 09:17:33;;;;;;;9.43;3.30;;;;;;;;;;5071037;28;20386;-81
2023/07/28 09:20:02;;;;;;;3.03;2.77;;;;;;;;;;5071130;28;20238;-81
2023/07/28 09:22:34;;;;;;;3.40;3.07;;;;;;;;;;5071915;28;20199;-81
2023/07/28 09:25:12;;;;;;;4.63;2.63;;;;;;;;;;5071873;28;20195;-81
2023/07/28 09:27:41;;;;;;;3.30;2.40;;;;;;;;;;5071834;28;20199;-81
2023/07/28 09:30:13;;;;;;;1.00;1.00;;;;;;;;;;5070092;28;20204;-87
2023/07/28 09:32:49;;;;;;;4.97;3.70;;;;;;;;;;5058411;28;20217;-87
2023/07/28 09:35:21;;;;;;;3.87;3.13;;;;;;;;;;5064176;28;20257;-85
2023/07/28 09:37:52;;;;;;;4.97;3.93;;;;;;;;;;5068099;28;20203;-85
2023/07/28 09:40:27;;;;;;;8.07;3.90;;;;;;;;;;5065941;28;20219;-86
2023/07/28 09:42:55;;;;;;;2.17;1.97;;;;;;;;;;5071285;28;20298;-85
2023/07/28 09:45:26;;;;;;;1.60;1.40;;;;;;;;;;5064322;28;20204;-85
2023/07/28 09:48:07;;;;;;;5.00;2.77;;;;;;;;;;5067880;28;20201;-87
2023/07/28 09:50:38;;;;;;;1.23;1.13;;;;;;;;;;5065350;28;20233;-85
2023/07/28 09:53:09;;;;;;;1.20;1.20;;;;;;;;;;5067105;28;20220;-85
2023/07/28 09:55:40;;;;;;;5.07;2.80;;;;;;;;;;5068689;28;20254;-86
2023/07/28 09:58:11;;;;;;;5.00;2.67;;;;;;;;;;5072578;28;20313;-82
2023/07/28 10:00:40;;;;;;;1.00;1.00;;;;;;;;;;5055653;28;20205;-86
2023/07/28 10:03:10;;;;;;;2.17;1.37;;;;;;;;;;5067308;28;20194;-86
2023/07/28 10:05:40;;;;;;;4.07;2.60;;;;;;;;;;5067208;28;20235;-86
2023/07/28 10:08:09;;;;;;;8.53;4.07;;;;;;;;;;5067274;28;20217;-86
2023/07/28 10:10:37;;;;;;;1.33;1.20;;;;;;;;;;5068481;28;20210;-87
2023/07/28 10:13:07;;;;;;;4.33;3.93;;;;;;;;;;5067978;28;20282;-86
2023/07/28 10:15:37;;;;;;;6.67;2.73;;;;;;;;;;5063232;28;20273;-89
2023/07/28 10:18:08;;;;;;;2.33;1.67;;;;;;;;;;5064234;28;20235;-88
2023/07/28 10:20:38;;;;;;;4.37;2.70;;;;;;;;;;5066906;28;20205;-87
2023/07/28 10:23:08;;;;;;;5.40;2.97;;;;;;;;;;5065580;28;20204;-85
2023/07/28 10:25:40;;;;;;;5.50;3.07;;;;;;;;;;5068915;28;20216;-85
2023/07/28 10:31:10;;;;;;;1.50;1.40;;;;;;;;;;5064200;27;1382691;-87
2023/07/28 10:33:40;;;;;;;4.27;2.57;;;;;;;;;;5100600;28;20263;-87
2023/07/28 10:36:14;;;;;;;3.47;1.40;;;;;;;;;;5102344;28;20208;-86
2023/07/28 10:38:45;;;;;;;4.17;2.00;;;;;;;;;;5097405;28;20209;-86
2023/07/28 10:41:15;;;;;;;4.77;3.13;;;;;;;;;;5102805;28;20202;-88
2023/07/28 10:43:46;;;;;;;7.50;4.60;;;;;;;;;;5096634;28;20244;-86
2023/07/28 10:46:18;;;;;;;3.30;2.23;;;;;;;;;;5097740;28;20208;-86
2023/07/28 10:48:48;;;;;;;5.27;3.83;;;;;;;;;;5097477;28;20225;-87
2023/07/28 10:51:24;;;;;;;8.90;2.73;;;;;;;;;;5103546;28;20201;-92
2023/07/28 10:53:57;;;;;;;1.27;1.17;;;;;;;;;;5106047;28;20207;-95
2023/07/28 10:56:33;;;;;;;2.43;1.63;;;;;;;;;;5100314;28;20205;-91
2023/07/28 10:59:03;;;;;;;3.00;1.53;;;;;;;;;;5102473;28;20207;-90
2023/07/28 11:01:37;;;;;;;2.90;2.53;;;;;;;;;;5103702;28;20201;-87
2023/07/28 11:04:10;;;;;;;3.57;2.00;;;;;;;;;;5094642;28;20200;-89
2023/07/28 11:06:40;;;;;;;1.57;1.47;;;;;;;;;;5082697;28;20311;-87
2023/07/28 11:09:16;;;;;;;1.60;1.23;;;;;;;;;;5081154;28;20214;-87
2023/07/28 11:11:46;;;;;;;5.03;2.73;;;;;;;;;;5073192;28;20207;-88
2023/07/28 11:14:29;;;;;;;4.97;2.67;;;;;;;;;;5079324;28;20233;-86
2023/07/28 11:16:59;;;;;;;1.60;1.40;;;;;;;;;;5086466;28;20222;-86
2023/07/28 11:19:31;;;;;;;2.87;2.57;;;;;;;;;;5087333;28;20207;-86
2023/07/28 11:22:00;;;;;;;6.13;2.97;;;;;;;;;;5083646;28;20202;-87
2023/07/28 11:24:28;;;;;;;6.17;3.83;;;;;;;;;;5080582;28;20232;-88
2023/07/28 11:26:59;;;;;;;3.73;2.17;;;;;;;;;;5094004;28;20219;-90
2023/07/28 11:29:31;;;;;;;1.60;1.47;;;;;;;;;;5086391;28;20245;-87
2023/07/28 11:32:02;;;;;;;1.87;1.67;;;;;;;;;;5083917;28;20221;-87
2023/07/28 11:34:35;;;;;;;2.30;2.00;;;;;;;;;;5087355;28;20212;-87
2023/07/28 11:37:05;;;;;;;4.13;2.53;;;;;;;;;;5085392;28;20220;-86
2023/07/28 11:39:35;;;;;;;1.90;1.80;;;;;;;;;;5080788;28;20194;-85
2023/07/28 11:42:04;;;;;;;5.00;1.90;;;;;;;;;;5071300;28;20197;-87
2023/07/28 11:44:33;;;;;;;1.97;1.83;;;;;;;;;;5064569;28;20210;-86
2023/07/28 11:47:06;;;;;;;6.93;4.30;;;;;;;;;;5065836;28;20208;-86
2023/07/28 11:49:47;;;;;;;2.60;2.40;;;;;;;;;;5068356;28;20211;-86
2023/07/28 11:52:16;;;;;;;1.83;1.63;;;;;;;;;;5068874;28;20315;-86
2023/07/28 11:54:52;;;;;;;9.93;2.23;;;;;;;;;;5069408;28;20231;-86
2023/07/28 11:57:22;;;;;;;4.23;2.67;;;;;;;;;;5071595;28;20200;-87
2023/07/28 11:59:54;;;;;;;5.77;2.00;;;;;;;;;;5064915;28;20203;-87
2023/07/28 12:02:28;;;;;;;2.23;2.10;;;;;;;;;;5066605;28;20203;-86
2023/07/28 12:04:58;;;;;;;3.33;2.70;;;;;;;;;;5065209;28;20245;-88
2023/07/28 12:07:35;;;;;;;1.87;1.77;;;;;;;;;;5068174;28;20206;-87
2023/07/28 12:10:09;;;;;;;6.23;3.30;;;;;;;;;;5064113;28;20217;-88
2023/07/28 12:13:26;;;;;;;1.13;1.03;;;;;;;;;;5062692;28;20198;-89
2023/07/28 12:16:00;;;;;;;3.67;2.23;;;;;;;;;;5062927;28;20209;-87
2023/07/28 12:18:35;;;;;;;1.90;1.60;;;;;;;;;;5062749;28;20218;-88
2023/07/28 12:21:06;;;;;;;1.83;1.50;;;;;;;;;;5066149;28;20202;-88
2023/07/28 12:23:40;;;;;;;3.97;3.57;;;;;;;;;;5061728;28;20203;-89
2023/07/28 12:26:12;;;;;;;1.03;0.90;;;;;;;;;;5061577;28;20214;-89
2023/07/28 12:28:41;;;;;;;2.53;2.20;;;;;;;;;;5067611;28;20204;-88
2023/07/28 12:31:12;;;;;;;1.73;1.63;;;;;;;;;;5067104;28;20234;-90
2023/07/28 12:34:02;;;;;;;1.77;1.67;;;;;;;;;;5063059;28;20204;-87
2023/07/28 12:36:38;;;;;;;3.77;2.30;;;;;;;;;;5079976;28;20221;-86
2023/07/28 12:39:10;;;;;;;7.60;3.93;;;;;;;;;;5072351;28;20203;-85
2023/07/28 12:41:44;;;;;;;4.63;4.20;;;;;;;;;;5068594;28;20198;-87
2023/07/28 12:44:42;;;;;;;3.50;3.10;;;;;;;;;;5073113;28;20228;-87
2023/07/28 12:47:13;;;;;;;4.17;2.80;;;;;;;;;;5056113;28;20215;-87
2023/07/28 12:49:52;;;;;;;2.50;2.30;;;;;;;;;;5071857;28;20210;-87
2023/07/28 12:52:21;;;;;;;5.23;4.17;;;;;;;;;;5075880;28;20202;-87
2023/07/28 12:55:10;;;;;;;3.13;1.80;;;;;;;;;;5077115;28;20232;-86
2023/07/28 12:57:44;;;;;;;2.83;2.53;;;;;;;;;;5059391;28;20195;-88
2023/07/28 13:00:13;;;;;;;1.53;1.33;;;;;;;;;;5078001;28;20313;-86
2023/07/28 13:02:48;;;;;;;3.10;2.80;;;;;;;;;;5074688;28;20206;-87
2023/07/28 13:05:23;;;;;;;1.43;1.27;;;;;;;;;;5072279;28;20213;-86
2023/07/28 13:07:51;;;;;;;3.57;2.60;;;;;;;;;;5074550;28;20294;-85
2023/07/28 13:10:23;;;;;;;2.17;1.70;;;;;;;;;;5070372;28;20221;-83
2023/07/28 13:12:54;;;;;;;10.13;2.80;;;;;;;;;;5062915;28;20213;-86
2023/07/28 13:15:28;;;;;;;3.63;1.80;;;;;;;;;;5062929;28;20215;-86
2023/07/28 13:18:21;;;;;;;8.00;2.90;;;;;;;;;;5065113;28;20226;-88
2023/07/28 13:21:00;;;;;;;5.27;3.80;;;;;;;;;;5071920;28;20198;-91
2023/07/28 13:23:29;;;;;;;2.57;1.90;;;;;;;;;;5063655;28;20333;-90
2023/07/28 13:26:04;;;;;;;3.47;2.00;;;;;;;;;;5066810;28;20195;-88
2023/07/28 13:28:36;;;;;;;3.50;2.10;;;;;;;;;;5066981;28;20253;-86
2023/07/28 13:31:05;;;;;;;1.23;1.23;;;;;;;;;;5068691;28;20278;-91
2023/07/28 13:33:34;;;;;;;3.37;2.20;;;;;;;;;;5073462;28;20210;-92
2023/07/28 13:36:07;;;;;;;0.90;0.80;;;;;;;;;;5076094;28;20195;-91
2023/07/28 13:38:37;;;;;;;2.43;2.23;;;;;;;;;;5069541;28;20215;-91
2023/07/28 13:41:06;;;;;;;9.83;2.90;;;;;;;;;;5074276;28;20210;-92
2023/07/28 13:43:37;;;;;;;4.50;2.00;;;;;;;;;;5071023;28;20210;-89
2023/07/28 13:46:06;;;;;;;2.80;1.80;;;;;;;;;;5084241;28;20204;-92
2023/07/28 13:48:39;;;;;;;4.33;3.53;;;;;;;;;;5068876;28;20255;-89
2023/07/28 13:51:22;;;;;;;6.90;3.23;;;;;;;;;;5062689;28;20259;-89
2023/07/28 13:54:12;;;;;;;1.90;1.57;;;;;;;;;;5065274;28;20234;-84
2023/07/28 13:56:46;;;;;;;2.37;2.17;;;;;;;;;;5062745;28;20192;-85
2023/07/28 13:59:24;;;;;;;1.00;1.00;;;;;;;;;;5069262;28;20217;-85
2023/07/28 14:01:57;;;;;;;2.93;1.47;;;;;;;;;;5057546;28;20224;-87
2023/07/28 14:04:26;;;;;;;0.60;0.60;;;;;;;;;;5063768;28;20206;-89
2023/07/28 14:07:03;;;;;;;3.83;1.67;;;;;;;;;;5060078;28;20404;-85
2023/07/28 14:12:22;;;;;;;3.63;1.80;;;;;;;;;;5064632;28;20311;-88
2023/07/28 14:14:51;;;;;;;1.70;1.60;;;;;;;;;;5061712;28;20254;-87
2023/07/28 14:17:22;;;;;;;1.60;1.47;;;;;;;;;;5065092;28;20278;-90
2023/07/28 14:19:53;;;;;;;2.17;1.63;;;;;;;;;;5063880;28;20213;-85
2023/07/28 14:22:26;;;;;;;5.63;1.00;;;;;;;;;;5060006;28;20187;-86
2023/07/28 14:24:57;;;;;;;1.70;1.27;;;;;;;;;;5060285;28;20216;-87
2023/07/28 14:27:31;;;;;;;2.17;1.93;;;;;;;;;;5061840;28;20207;-85
2023/07/28 14:30:05;;;;;;;1.63;1.53;;;;;;;;;;5063110;28;20232;-85
2023/07/28 14:32:34;;;;;;;3.07;2.10;;;;;;;;;;5066835;28;20223;-85
2023/07/28 14:35:02;;;;;;;5.17;3.33;;;;;;;;;;5067795;28;20203;-85
2023/07/28 14:37:32;;;;;;;0.77;0.77;;;;;;;;;;5069179;28;20212;-85
2023/07/28 14:40:01;;;;;;;1.33;1.23;;;;;;;;;;5071197;28;20209;-85
2023/07/28 14:42:33;;;;;;;1.60;1.50;;;;;;;;;;5071345;28;20292;-85
2023/07/28 14:45:01;;;;;;;2.10;1.27;;;;;;;;;;5071354;28;20194;-84
2023/07/28 14:47:30;;;;;;;2.53;1.67;;;;;;;;;;5071025;28;20235;-84
2023/07/28 14:49:58;;;;;;;0.53;0.53;;;;;;;;;;5071533;28;20200;-84
2023/07/28 14:52:28;;;;;;;1.57;1.47;;;;;;;;;;5069339;28;20209;-84
2023/07/28 14:54:58;;;;;;;1.67;1.57;;;;;;;;;;5071176;28;20205;-84
2023/07/28 14:57:26;;;;;;;4.33;3.10;;;;;;;;;;5071433;28;20243;-85
2023/07/28 15:00:05;;;;;;;1.00;0.90;;;;;;;;;;5071267;28;20203;-85
2023/07/28 15:02:36;;;;;;;6.43;1.63;;;;;;;;;;5070066;28;20197;-84
2023/07/28 15:05:05;;;;;;;5.73;2.90;;;;;;;;;;5071099;28;20198;-84
2023/07/28 15:07:35;;;;;;;1.70;1.60;;;;;;;;;;5070028;28;20209;-84